Time;durP1;ratioP1;P1;durP2;ratioP2;P2;SDS_P1;SDS_P2;PMS_P1;PMS_P2;Temp;Humidity;BMP_temperature;BMP_pressure;BME280_temperature;BME280_humidity;BME280_pressure;Samples;Min_cycle;Max_cycle;Signal;HPM_P1;HPM_P2
2022/08/20 00:00:24;;;;;;;13.68;10.95;;;;;;;19.33;95.88;101478.66;4915946;29;20034;-49
2022/08/20 00:02:57;;;;;;;12.70;11.15;;;;;;;19.35;95.61;101479.34;4913335;29;20032;-49
2022/08/20 00:05:27;;;;;;;13.55;10.93;;;;;;;19.31;96.19;101477.97;4926560;29;20063;-49
2022/08/20 00:07:53;;;;;;;12.20;10.82;;;;;;;19.31;96.80;101474.44;4916791;29;20040;-51
2022/08/20 00:10:20;;;;;;;13.13;10.43;;;;;;;19.29;96.06;101471.91;4916176;29;20036;-49
2022/08/20 00:12:47;;;;;;;11.77;10.60;;;;;;;19.29;95.83;101469.22;4916197;29;20515;-49
2022/08/20 00:15:14;;;;;;;13.07;10.82;;;;;;;19.32;95.81;101463.50;4914596;29;20029;-49
2022/08/20 00:17:39;;;;;;;12.40;10.52;;;;;;;19.34;95.35;101469.56;4915199;29;20067;-49
2022/08/20 00:20:09;;;;;;;12.15;10.68;;;;;;;19.31;95.81;101467.19;4916317;29;20115;-50
2022/08/20 00:22:35;;;;;;;11.15;9.80;;;;;;;19.33;96.45;101461.66;4915101;29;20434;-49
2022/08/20 00:25:03;;;;;;;13.52;10.70;;;;;;;19.33;96.25;101467.03;4915992;29;20032;-49
2022/08/20 00:27:28;;;;;;;12.30;10.80;;;;;;;19.33;96.40;101458.94;4915688;29;20028;-49
2022/08/20 00:29:54;;;;;;;13.20;10.57;;;;;;;19.34;95.55;101464.19;4915985;29;20032;-50
2022/08/20 00:32:19;;;;;;;11.30;10.17;;;;;;;19.33;96.04;101462.47;4928023;29;20652;-49
2022/08/20 00:34:44;;;;;;;12.20;10.68;;;;;;;19.32;95.07;101459.97;4915934;29;20686;-49
2022/08/20 00:37:09;;;;;;;11.80;10.53;;;;;;;19.32;95.18;101463.50;4915495;29;20088;-49
2022/08/20 00:39:35;;;;;;;12.48;11.18;;;;;;;19.30;97.08;101465.53;4927956;29;20362;-52
2022/08/20 00:42:01;;;;;;;13.67;10.40;;;;;;;19.29;96.47;101468.38;4920037;29;20024;-50
2022/08/20 00:44:27;;;;;;;11.85;10.65;;;;;;;19.28;95.53;101470.19;4919582;29;20327;-52
2022/08/20 00:46:53;;;;;;;11.88;10.68;;;;;;;19.28;95.70;101467.50;4919266;29;20103;-49
2022/08/20 00:49:28;;;;;;;13.18;10.82;;;;;;;19.28;96.43;101466.66;4919145;29;20483;-49
2022/08/20 00:52:18;;;;;;;11.80;10.48;;;;;;;19.27;96.34;101467.66;4941661;23;20049;-45
2022/08/20 00:54:52;;;;;;;12.27;10.52;;;;;;;19.27;96.18;101468.53;4892174;29;20092;-45
2022/08/20 00:57:29;;;;;;;11.50;10.10;;;;;;;19.28;95.46;101469.38;4911177;29;20080;-45
2022/08/20 00:59:56;;;;;;;12.48;10.20;;;;;;;19.26;96.20;101477.59;4899429;29;20503;-45
2022/08/20 01:02:26;;;;;;;12.73;10.35;;;;;;;19.23;95.83;101468.00;4901701;29;20044;-45
2022/08/20 01:04:55;;;;;;;13.70;10.48;;;;;;;19.22;96.71;101474.38;4901788;29;20387;-45
2022/08/20 01:07:27;;;;;;;11.75;10.20;;;;;;;19.22;95.38;101473.56;4901926;29;20505;-46
2022/08/20 01:09:53;;;;;;;15.80;10.65;;;;;;;19.20;96.41;101470.16;4897909;29;20083;-43
2022/08/20 01:12:19;;;;;;;15.02;11.02;;;;;;;19.18;95.94;101466.78;4901324;29;20021;-45
2022/08/20 01:14:46;;;;;;;13.43;11.73;;;;;;;19.11;96.94;101474.66;4913748;29;20028;-44
2022/08/20 01:17:16;;;;;;;14.48;12.43;;;;;;;19.07;97.40;101467.91;4900909;29;20058;-45
2022/08/20 01:20:26;;;;;;;18.05;12.43;;;;;;;19.16;96.88;101469.63;4897723;29;20116;-45
2022/08/20 01:23:29;;;;;;;16.38;12.00;;;;;;;19.14;96.10;101468.94;4879710;29;20029;-44
2022/08/20 01:26:23;;;;;;;15.93;12.15;;;;;;;19.12;96.45;101464.72;4907375;29;20044;-45
2022/08/20 01:29:00;;;;;;;14.45;12.88;;;;;;;19.09;98.07;101471.28;4892039;29;20072;-45
2022/08/20 01:31:28;;;;;;;15.35;13.13;;;;;;;19.01;98.11;101469.34;4900880;29;20025;-47
2022/08/20 01:33:55;;;;;;;16.27;13.73;;;;;;;19.07;97.16;101467.91;4901354;29;20047;-46
2022/08/20 01:36:25;;;;;;;16.17;13.07;;;;;;;19.06;97.65;101476.13;4900107;29;20288;-47
2022/08/20 01:38:51;;;;;;;15.55;13.48;;;;;;;19.06;97.61;101470.75;4901886;29;20523;-44
2022/08/20 01:41:47;;;;;;;17.05;13.52;;;;;;;19.10;97.32;101466.72;4901007;29;20099;-45
2022/08/20 01:44:13;;;;;;;16.88;12.77;;;;;;;19.08;97.14;101468.75;4901054;29;20116;-45
2022/08/20 01:46:41;;;;;;;17.35;13.57;;;;;;;19.02;97.05;101465.69;4902000;29;20108;-45
2022/08/20 01:49:11;;;;;;;20.70;14.10;;;;;;;19.01;97.56;101463.97;4900720;29;20045;-44
2022/08/20 01:51:37;;;;;;;14.52;12.73;;;;;;;19.00;98.12;101475.75;4914540;29;20055;-45
2022/08/20 01:54:05;;;;;;;18.17;13.00;;;;;;;18.96;97.77;101468.16;4900917;29;20115;-46
2022/08/20 01:56:31;;;;;;;19.17;14.18;;;;;;;18.97;98.41;101472.53;4896374;29;20047;-45
2022/08/20 01:58:58;;;;;;;18.23;13.65;;;;;;;18.97;97.67;101472.53;4900211;29;20024;-46
2022/08/20 02:01:33;;;;;;;18.08;14.07;;;;;;;18.93;97.32;101472.00;4900217;29;20036;-47
2022/08/20 02:04:01;;;;;;;20.13;14.10;;;;;;;18.90;98.48;101476.84;4898478;29;20032;-46
2022/08/20 02:06:29;;;;;;;17.85;14.57;;;;;;;18.91;97.24;101475.88;4901072;29;20088;-43
2022/08/20 02:08:58;;;;;;;19.50;14.65;;;;;;;18.89;98.44;101475.19;4904196;29;20119;-45
2022/08/20 02:11:23;;;;;;;;;;;;;;;18.99;95.82;101474.06;4908198;29;20054;-45
2022/08/20 02:13:51;;;;;;;20.60;14.20;;;;;;;18.89;98.22;101476.00;4890219;29;20379;-44
2022/08/20 02:16:22;;;;;;;20.77;14.88;;;;;;;18.86;98.75;101476.31;4900198;29;20045;-46
2022/08/20 02:18:53;;;;;;;16.92;14.02;;;;;;;18.84;97.98;101481.03;4900033;29;20481;-44
2022/08/20 02:21:19;;;;;;;19.40;15.18;;;;;;;18.85;98.99;101475.50;4899462;29;20068;-45
2022/08/20 02:23:45;;;;;;;18.38;14.60;;;;;;;18.86;98.17;101471.78;4900016;29;20032;-44
2022/08/20 02:26:10;;;;;;;22.17;15.20;;;;;;;18.86;98.57;101487.09;4899360;29;20155;-45
2022/08/20 02:28:35;;;;;;;20.33;14.30;;;;;;;18.80;98.03;101480.47;4899720;29;20637;-46
2022/08/20 02:31:02;;;;;;;22.27;14.90;;;;;;;18.80;97.46;101482.28;4898499;29;20123;-45
2022/08/20 02:33:27;;;;;;;18.02;14.00;;;;;;;18.76;98.50;101476.38;4899366;29;20036;-45
2022/08/20 02:35:55;;;;;;;19.42;13.85;;;;;;;18.70;97.97;101473.47;4899823;29;20024;-44
2022/08/20 02:38:20;;;;;;;23.52;14.88;;;;;;;18.65;97.90;101477.47;4900038;29;20068;-45
2022/08/20 02:40:47;;;;;;;24.30;14.98;;;;;;;18.62;98.79;101475.09;4902256;29;20066;-47
2022/08/20 02:43:13;;;;;;;20.33;14.90;;;;;;;18.62;98.43;101477.78;4912193;29;20472;-44
2022/08/20 02:45:42;;;;;;;19.35;13.40;;;;;;;18.63;98.14;101484.00;4901660;29;20116;-45
2022/08/20 02:48:11;;;;;;;18.90;15.60;;;;;;;18.59;98.16;101485.31;4900645;29;20059;-43
2022/08/20 02:50:36;;;;;;;23.98;15.02;;;;;;;18.61;97.49;101491.38;4900280;29;20021;-45
2022/08/20 02:53:01;;;;;;;21.63;15.82;;;;;;;18.59;97.96;101488.03;4913841;29;20060;-49
2022/08/20 02:55:27;;;;;;;21.60;15.50;;;;;;;18.59;97.87;101482.63;4909513;29;20028;-48
2022/08/20 02:57:53;;;;;;;26.23;17.58;;;;;;;18.55;98.44;101482.09;4897561;29;20028;-47
2022/08/20 03:00:20;;;;;;;24.42;17.52;;;;;;;18.54;98.03;101488.47;4904109;29;20171;-48
2022/08/20 03:02:46;;;;;;;26.27;18.75;;;;;;;18.53;97.71;101485.94;4891679;29;20035;-45
2022/08/20 03:05:12;;;;;;;28.33;20.08;;;;;;;18.52;98.03;101490.47;4903917;29;20036;-45
2022/08/20 03:07:45;;;;;;;25.65;20.63;;;;;;;18.52;98.29;101485.09;4904887;29;20119;-45
2022/08/20 03:10:11;;;;;;;28.50;20.23;;;;;;;18.51;98.39;101488.78;4892322;29;20033;-44
2022/08/20 03:12:37;;;;;;;31.25;20.48;;;;;;;18.49;97.95;101497.00;4903365;29;20029;-45
2022/08/20 03:15:04;;;;;;;24.20;19.92;;;;;;;18.47;97.71;101492.78;4903185;29;20036;-47
2022/08/20 03:17:29;;;;;;;27.98;19.63;;;;;;;18.48;98.09;101489.09;4904568;29;20028;-45
2022/08/20 03:19:54;;;;;;;29.00;20.40;;;;;;;18.45;98.19;101492.06;4903658;29;20036;-46
2022/08/20 03:22:19;;;;;;;27.03;19.27;;;;;;;18.41;97.58;101496.09;4900569;29;20292;-45
2022/08/20 03:24:45;;;;;;;27.37;20.53;;;;;;;18.39;97.68;101493.53;4898917;29;20305;-47
2022/08/20 03:27:11;;;;;;;26.17;20.37;;;;;;;18.36;97.03;101483.09;4903764;29;20289;-45
2022/08/20 03:29:36;;;;;;;29.65;19.83;;;;;;;18.35;96.26;101496.69;4903970;29;20281;-47
2022/08/20 03:32:02;;;;;;;23.70;18.27;;;;;;;18.33;96.64;101496.84;4903185;29;20064;-44
2022/08/20 03:34:27;;;;;;;29.60;19.08;;;;;;;18.31;96.74;101496.16;4904130;29;20299;-44
2022/08/20 03:36:52;;;;;;;25.80;17.47;;;;;;;18.30;96.76;101502.50;4903492;29;20053;-45
2022/08/20 03:39:18;;;;;;;28.07;18.10;;;;;;;18.23;97.05;101501.44;4903744;29;20298;-45
2022/08/20 03:41:43;;;;;;;26.43;17.33;;;;;;;18.21;96.46;101503.44;4903365;29;20373;-45
2022/08/20 03:44:09;;;;;;;24.92;17.27;;;;;;;18.20;97.11;101507.97;4897331;29;20300;-45
2022/08/20 03:46:34;;;;;;;31.95;18.27;;;;;;;18.17;97.62;101507.41;4902398;29;20085;-47
2022/08/20 03:48:59;;;;;;;26.40;17.77;;;;;;;18.17;97.78;101512.78;4902261;29;20024;-45
2022/08/20 03:51:24;;;;;;;25.20;17.87;;;;;;;18.16;96.14;101508.44;4901165;29;20056;-44
2022/08/20 03:53:50;;;;;;;23.63;16.38;;;;;;;18.16;96.59;101509.25;4900978;29;20284;-46
2022/08/20 03:56:16;;;;;;;24.15;16.35;;;;;;;18.15;97.07;101515.63;4902149;29;20040;-45
2022/08/20 03:58:42;;;;;;;28.08;17.38;;;;;;;18.12;95.92;101516.78;4900508;29;20047;-44
2022/08/20 04:01:08;;;;;;;23.27;16.38;;;;;;;18.12;96.15;101518.66;4901039;29;20092;-44
2022/08/20 04:03:34;;;;;;;29.03;17.27;;;;;;;18.09;96.28;101509.03;4901006;29;20463;-45
2022/08/20 04:05:59;;;;;;;28.90;17.17;;;;;;;18.08;96.43;101515.38;4901885;29;20761;-44
2022/08/20 04:08:26;;;;;;;23.85;16.45;;;;;;;18.05;96.25;101509.47;4901691;29;20071;-46
2022/08/20 04:10:56;;;;;;;27.00;16.17;;;;;;;18.06;95.94;101517.38;4901726;29;20474;-45
2022/08/20 04:13:23;;;;;;;26.92;16.80;;;;;;;18.03;97.06;101517.69;4901780;29;20025;-45
2022/08/20 04:15:48;;;;;;;25.30;17.20;;;;;;;18.02;95.68;101521.38;4903508;29;20091;-45
2022/08/20 04:18:19;;;;;;;26.63;16.77;;;;;;;18.00;96.12;101525.19;4906054;29;20119;-44
2022/08/20 04:20:46;;;;;;;26.10;16.42;;;;;;;18.00;96.19;101525.19;4902645;29;20040;-45
2022/08/20 04:23:12;;;;;;;26.38;17.52;;;;;;;18.04;95.98;101526.59;4890393;29;20387;-44
2022/08/20 04:25:41;;;;;;;26.45;18.88;;;;;;;18.00;95.88;101523.38;4900013;29;20082;-47
2022/08/20 04:28:12;;;;;;;25.52;19.63;;;;;;;18.02;96.30;101525.88;4904949;29;20033;-44
2022/08/20 04:30:37;;;;;;;28.52;21.63;;;;;;;17.97;96.42;101523.69;4903539;29;20128;-46
2022/08/20 04:33:02;;;;;;;27.42;21.85;;;;;;;18.00;96.39;101533.25;4905097;29;20073;-44
2022/08/20 04:35:29;;;;;;;29.55;22.85;;;;;;;17.96;96.65;101531.88;4903386;29;20503;-43
2022/08/20 04:38:03;;;;;;;30.75;23.88;;;;;;;17.97;96.16;101534.44;4904027;29;20028;-47
2022/08/20 04:43:13;;;;;;;30.30;24.95;;;;;;;17.98;96.39;101543.31;4904255;29;20035;-44
2022/08/20 04:45:39;;;;;;;30.02;24.85;;;;;;;17.95;96.49;101547.16;4903528;29;20464;-45
2022/08/20 04:48:06;;;;;;;28.77;24.58;;;;;;;17.96;96.67;101554.22;4903465;29;20041;-45
2022/08/20 04:50:35;;;;;;;34.75;25.17;;;;;;;17.94;96.63;101554.38;4902906;29;20020;-45
2022/08/20 04:53:06;;;;;;;30.40;24.40;;;;;;;17.92;96.05;101555.53;4898251;29;20051;-43
2022/08/20 04:55:32;;;;;;;38.65;26.42;;;;;;;17.89;95.85;101550.44;4903518;29;20051;-45
2022/08/20 04:58:05;;;;;;;32.95;24.02;;;;;;;17.85;96.58;101565.13;4903723;29;20028;-45
2022/08/20 05:00:31;;;;;;;34.40;23.80;;;;;;;17.83;95.95;101559.06;4904022;29;20036;-46
2022/08/20 05:02:56;;;;;;;31.85;24.17;;;;;;;17.81;96.07;101566.44;4899999;29;20040;-43
2022/08/20 05:05:22;;;;;;;31.13;22.83;;;;;;;17.81;96.17;101569.13;4903067;29;20053;-44
2022/08/20 05:07:47;;;;;;;30.00;23.65;;;;;;;17.80;96.03;101562.03;4903024;29;20043;-44
2022/08/20 05:10:15;;;;;;;31.08;24.00;;;;;;;17.76;96.49;101566.88;4903710;29;20532;-43
2022/08/20 05:12:41;;;;;;;31.75;23.30;;;;;;;17.76;96.14;101570.38;4902746;29;20032;-45
2022/08/20 05:15:10;;;;;;;29.27;22.23;;;;;;;17.71;95.94;101572.66;4903151;29;20088;-46
2022/08/20 05:17:36;;;;;;;32.08;23.02;;;;;;;17.76;97.11;101566.88;4902957;29;20041;-44
2022/08/20 05:20:02;;;;;;;30.98;20.70;;;;;;;17.75;95.77;101565.16;4908580;29;20036;-44
2022/08/20 05:22:27;;;;;;;28.23;19.38;;;;;;;17.76;95.33;101570.38;4906627;29;20077;-44
2022/08/20 05:24:55;;;;;;;29.20;20.03;;;;;;;17.76;96.58;101570.38;4902157;29;20072;-43
2022/08/20 05:27:25;;;;;;;32.33;21.58;;;;;;;17.78;96.16;101572.09;4902857;29;20300;-43
2022/08/20 05:29:52;;;;;;;30.67;19.98;;;;;;;17.76;96.33;101578.44;4904193;29;20440;-45
2022/08/20 05:32:17;;;;;;;24.83;20.42;;;;;;;17.75;96.72;101579.47;4903241;29;20029;-44
2022/08/20 05:34:42;;;;;;;30.35;22.25;;;;;;;17.79;96.57;101576.47;4901720;29;20453;-45
2022/08/20 05:37:08;;;;;;;34.40;22.40;;;;;;;17.77;97.28;101579.31;4899704;29;20032;-44
2022/08/20 05:39:34;;;;;;;34.97;22.33;;;;;;;17.81;97.42;101580.69;4903476;29;20584;-44
2022/08/20 05:41:59;;;;;;;27.35;20.85;;;;;;;17.83;96.43;101592.13;4903396;29;20365;-44
2022/08/20 05:44:24;;;;;;;33.05;22.58;;;;;;;17.83;96.62;101583.25;4903861;29;20052;-44
2022/08/20 05:46:50;;;;;;;32.75;21.65;;;;;;;17.85;95.65;101587.50;4902924;29;20068;-44
2022/08/20 05:49:18;;;;;;;32.20;22.85;;;;;;;17.84;95.54;101587.63;4904946;29;20503;-47
2022/08/20 05:51:44;;;;;;;32.83;25.10;;;;;;;17.83;95.68;101594.00;4903289;29;20052;-47
2022/08/20 05:54:10;;;;;;;37.90;25.15;;;;;;;17.85;96.64;101592.00;4901694;29;20600;-44
2022/08/20 05:56:36;;;;;;;34.88;26.38;;;;;;;17.87;97.41;101592.72;4903754;29;20068;-45
2022/08/20 05:59:04;;;;;;;43.08;27.95;;;;;;;17.86;97.88;101591.03;4903752;29;20115;-45
2022/08/20 06:01:31;;;;;;;38.60;27.02;;;;;;;17.86;96.86;101597.22;4901537;29;20085;-46
2022/08/20 06:06:41;;;;;;;39.65;28.05;;;;;;;17.85;96.90;101592.88;4901781;29;20105;-45
2022/08/20 06:09:06;;;;;;;39.67;26.58;;;;;;;17.89;96.21;101596.13;4906655;29;20032;-44
2022/08/20 06:11:32;;;;;;;39.53;27.48;;;;;;;17.91;96.15;101599.50;4909281;29;20100;-44
2022/08/20 06:13:58;;;;;;;39.95;27.30;;;;;;;17.92;96.73;101602.06;4908748;29;20029;-46
2022/08/20 06:16:23;;;;;;;38.35;27.88;;;;;;;17.95;97.54;101603.59;4908329;29;20040;-45
2022/08/20 06:18:48;;;;;;;41.08;29.00;;;;;;;17.94;96.69;101600.06;4907148;29;20037;-50
2022/08/20 06:21:14;;;;;;;41.45;27.85;;;;;;;17.98;96.86;101605.16;4903189;29;20043;-47
2022/08/20 06:23:40;;;;;;;40.80;28.33;;;;;;;17.98;96.80;101605.97;4904657;29;20044;-45
2022/08/20 06:26:08;;;;;;;41.00;29.38;;;;;;;17.99;96.42;101601.47;4907856;29;20096;-45
2022/08/20 06:28:34;;;;;;;43.47;28.75;;;;;;;18.00;96.33;101600.47;4900187;29;20512;-45
2022/08/20 06:30:59;;;;;;;45.15;29.23;;;;;;;18.04;97.18;101594.66;4905298;29;20495;-44
2022/08/20 06:33:24;;;;;;;38.77;27.30;;;;;;;18.07;96.23;101602.41;4902152;29;20045;-46
2022/08/20 06:35:49;;;;;;;44.33;29.42;;;;;;;18.07;96.80;101596.22;4905157;29;20329;-47
2022/08/20 06:38:15;;;;;;;39.77;28.70;;;;;;;18.09;96.15;101586.97;4904343;29;20039;-45
2022/08/20 06:40:40;;;;;;;39.43;29.37;;;;;;;18.14;96.28;101600.00;4908621;29;20816;-44
2022/08/20 06:43:07;;;;;;;44.70;30.60;;;;;;;18.13;96.38;101606.34;4907453;29;20373;-44
2022/08/20 06:45:34;;;;;;;47.00;30.95;;;;;;;18.16;97.23;101608.75;4898957;29;20159;-46
2022/08/20 06:48:05;;;;;;;41.70;29.98;;;;;;;18.19;96.32;101608.44;4892662;29;20048;-45
2022/08/20 06:50:38;;;;;;;42.72;32.20;;;;;;;18.24;96.50;101608.00;4895588;29;20035;-45
2022/08/20 06:53:08;;;;;;;39.05;30.73;;;;;;;18.28;96.01;101609.38;4898331;29;20413;-45
2022/08/20 06:55:37;;;;;;;44.75;30.92;;;;;;;18.28;95.46;101606.69;4900253;29;20065;-46
2022/08/20 06:58:05;;;;;;;47.70;32.53;;;;;;;18.30;95.80;101605.56;4906995;29;20411;-47
2022/08/20 07:00:32;;;;;;;43.58;31.27;;;;;;;18.35;96.17;101609.63;4908242;29;20561;-45
2022/08/20 07:02:59;;;;;;;43.47;32.65;;;;;;;18.32;95.96;101613.50;4903733;29;20038;-45
2022/08/20 07:05:27;;;;;;;45.13;31.60;;;;;;;18.35;95.17;101607.78;4902383;29;20109;-47
2022/08/20 07:07:52;;;;;;;44.97;32.90;;;;;;;18.40;95.78;101610.91;4905538;29;20119;-45
2022/08/20 07:10:19;;;;;;;43.00;33.67;;;;;;;18.41;95.18;101612.56;4903505;29;20044;-44
2022/08/20 07:12:45;;;;;;;48.15;33.58;;;;;;;18.47;95.36;101617.34;4907908;29;20300;-47
2022/08/20 07:15:12;;;;;;;47.88;33.33;;;;;;;18.49;94.88;101612.66;4907247;29;20187;-47
2022/08/20 07:17:38;;;;;;;44.63;33.90;;;;;;;18.54;95.88;101622.97;4904771;29;20028;-45
2022/08/20 07:20:10;;;;;;;41.85;33.80;;;;;;;18.55;95.77;101618.44;4902132;29;20052;-45
2022/08/20 07:22:36;;;;;;;43.38;33.35;;;;;;;18.61;95.66;101626.75;4895328;29;20032;-43
2022/08/20 07:25:04;;;;;;;40.63;34.40;;;;;;;18.62;95.08;101631.16;4907685;29;20051;-46
2022/08/20 07:27:29;;;;;;;43.63;35.20;;;;;;;18.62;94.83;101631.16;4912687;29;20025;-51
2022/08/20 07:32:39;;;;;;;43.63;33.88;;;;;;;18.67;95.64;101633.41;4921593;29;20039;-52
2022/08/20 07:35:17;;;;;;;45.28;35.65;;;;;;;18.75;96.15;101633.47;4907349;29;20045;-48
2022/08/20 07:37:45;;;;;;;46.10;34.70;;;;;;;18.79;94.51;101639.41;4905744;29;20029;-49
2022/08/20 07:40:16;;;;;;;41.50;33.50;;;;;;;18.82;93.53;101637.25;4899891;29;20032;-45
2022/08/20 07:42:41;;;;;;;43.38;34.47;;;;;;;18.89;94.01;101637.50;4912658;29;21055;-47
2022/08/20 07:45:12;;;;;;;40.95;32.90;;;;;;;18.94;93.93;101640.59;4918771;29;20032;-48
2022/08/20 07:47:40;;;;;;;46.97;33.20;;;;;;;18.98;93.84;101646.50;4919427;29;20017;-48
2022/08/20 07:50:07;;;;;;;35.87;31.57;;;;;;;19.02;93.58;101658.69;4900648;29;20056;-45
2022/08/20 07:52:34;;;;;;;38.55;31.55;;;;;;;19.06;93.03;101651.13;4892451;29;20056;-47
2022/08/20 07:55:03;;;;;;;44.65;33.53;;;;;;;19.05;93.12;101658.34;4905307;29;20068;-45
2022/08/20 07:57:29;;;;;;;37.47;32.10;;;;;;;19.09;93.25;101664.31;4906836;29;20096;-48
2022/08/20 07:59:57;;;;;;;37.17;30.63;;;;;;;19.12;93.70;101667.53;4908843;29;20036;-46
2022/08/20 08:02:23;;;;;;;33.50;29.67;;;;;;;19.20;92.49;101664.03;4908182;29;20088;-46
2022/08/20 08:04:48;;;;;;;34.20;29.05;;;;;;;19.27;91.92;101667.84;4908331;29;20036;-46
2022/08/20 08:07:13;;;;;;;35.63;28.93;;;;;;;19.62;92.50;101666.09;4907612;29;20032;-47
2022/08/20 08:09:38;;;;;;;35.28;27.60;;;;;;;20.04;92.47;101660.00;4909344;29;20325;-47
2022/08/20 08:12:04;;;;;;;26.60;22.77;;;;;;;20.27;89.27;101664.84;4907329;29;20466;-45
2022/08/20 08:14:33;;;;;;;25.30;22.20;;;;;;;20.67;87.41;101664.19;4910239;29;20016;-47
2022/08/20 08:17:02;;;;;;;21.55;18.83;;;;;;;20.88;84.55;101663.75;4909244;29;20024;-44
2022/08/20 08:19:33;;;;;;;21.50;17.58;;;;;;;21.28;81.45;101663.94;4909290;29;20046;-48
2022/08/20 08:21:58;;;;;;;25.38;19.48;;;;;;;21.43;79.43;101677.63;4911284;29;20048;-46
2022/08/20 08:24:23;;;;;;;22.70;18.15;;;;;;;21.36;79.80;101669.34;4907571;29;20025;-45
2022/08/20 08:26:49;;;;;;;20.00;14.73;;;;;;;21.34;78.86;101668.66;4907201;29;20400;-44
2022/08/20 08:29:15;;;;;;;20.77;15.27;;;;;;;21.64;77.04;101670.91;4905545;29;20392;-48
2022/08/20 08:31:41;;;;;;;20.98;15.90;;;;;;;22.04;76.26;101675.38;4906245;29;20028;-44
2022/08/20 08:34:07;;;;;;;24.67;15.48;;;;;;;22.31;75.36;101665.19;4906252;29;20037;-44
2022/08/20 08:36:32;;;;;;;20.27;14.80;;;;;;;22.51;73.76;101671.03;4897326;29;20507;-45
2022/08/20 08:38:57;;;;;;;22.40;15.37;;;;;;;22.70;73.23;101675.19;4905855;29;20024;-45
2022/08/20 08:41:30;;;;;;;20.27;14.30;;;;;;;22.84;74.33;101676.28;4905533;29;20376;-47
2022/08/20 08:44:09;;;;;;;19.67;12.90;;;;;;;22.81;74.58;101682.88;4907161;29;20292;-49
2022/08/20 08:46:40;;;;;;;16.48;11.65;;;;;;;22.57;71.49;101683.03;4894204;29;20032;-47
2022/08/20 08:49:08;;;;;;;17.33;13.13;;;;;;;22.33;71.58;101690.19;4905274;29;20033;-46
2022/08/20 08:52:00;;;;;;;17.27;13.63;;;;;;;22.58;74.67;101690.94;4904803;29;20123;-47
2022/08/20 08:54:30;;;;;;;15.00;13.02;;;;;;;22.76;70.99;101698.81;4903723;29;20416;-46
2022/08/20 08:56:55;;;;;;;17.40;11.25;;;;;;;23.08;68.52;101688.84;4905021;29;20029;-47
2022/08/20 08:59:22;;;;;;;17.45;10.23;;;;;;;23.33;67.87;101686.81;4904199;29;20039;-44
2022/08/20 09:01:52;;;;;;;14.82;8.25;;;;;;;23.70;64.71;101689.69;4904816;29;20063;-45
2022/08/20 09:04:20;;;;;;;14.57;9.40;;;;;;;23.92;64.10;101688.00;4903590;29;20032;-45
2022/08/20 09:06:47;;;;;;;14.27;8.27;;;;;;;24.13;63.10;101695.41;4907710;29;20040;-48
2022/08/20 09:09:23;;;;;;;13.02;7.95;;;;;;;24.10;62.20;101698.47;4905223;29;20036;-44
2022/08/20 09:11:53;;;;;;;13.73;8.38;;;;;;;24.14;62.04;101695.22;4907684;29;20038;-45
2022/08/20 09:14:19;;;;;;;13.63;8.27;;;;;;;24.25;60.97;101693.06;4906686;29;20088;-46
2022/08/20 09:16:45;;;;;;;16.70;8.20;;;;;;;24.57;60.72;101694.56;4907124;29;20059;-48
2022/08/20 09:19:10;;;;;;;13.25;7.90;;;;;;;24.71;59.94;101687.41;4914475;29;20029;-49
2022/08/20 09:21:36;;;;;;;11.95;6.75;;;;;;;25.06;59.85;101687.59;4906821;29;20412;-47
2022/08/20 09:24:01;;;;;;;13.52;6.85;;;;;;;25.11;55.07;101688.72;4901938;29;20028;-47
2022/08/20 09:26:26;;;;;;;11.27;7.22;;;;;;;25.09;56.96;101684.50;4914092;29;20024;-46
2022/08/20 09:28:52;;;;;;;14.77;6.32;;;;;;;25.21;56.85;101693.81;4914326;29;20064;-46
2022/08/20 09:31:17;;;;;;;12.30;6.60;;;;;;;25.43;55.94;101680.25;4909727;29;20063;-46
2022/08/20 09:33:42;;;;;;;11.30;6.50;;;;;;;25.71;56.16;101674.00;4908144;29;20293;-47
2022/08/20 09:36:08;;;;;;;10.77;7.40;;;;;;;25.70;55.45;101675.00;4908024;29;20032;-46
2022/08/20 09:38:33;;;;;;;14.10;6.40;;;;;;;25.88;57.22;101682.69;4906964;29;20040;-45
2022/08/20 09:40:58;;;;;;;12.02;6.50;;;;;;;26.39;55.22;101679.66;4904548;29;20399;-44
2022/08/20 09:43:24;;;;;;;15.23;7.63;;;;;;;26.53;55.36;101678.69;4907289;29;20088;-46
2022/08/20 09:45:49;;;;;;;11.80;6.85;;;;;;;26.39;53.48;101672.31;4907237;29;20032;-45
2022/08/20 09:48:14;;;;;;;10.40;6.70;;;;;;;26.36;53.46;101670.03;4906346;29;20038;-47
2022/08/20 09:50:45;;;;;;;15.23;6.77;;;;;;;26.75;52.52;101670.41;4907849;29;20553;-45
2022/08/20 09:53:12;;;;;;;13.13;6.88;;;;;;;26.82;51.41;101678.63;4907535;29;20304;-48
2022/08/20 09:55:43;;;;;;;13.57;6.72;;;;;;;26.81;52.73;101668.75;4908815;29;20048;-47
2022/08/20 09:58:22;;;;;;;10.77;4.32;;;;;;;27.09;50.43;101674.88;4914707;29;20036;-47
2022/08/20 10:00:48;;;;;;;11.32;3.10;;;;;;;27.08;44.75;101678.66;4912603;29;20071;-49
2022/08/20 10:03:13;;;;;;;9.65;4.78;;;;;;;27.37;47.46;101676.63;4911830;29;20025;-47
2022/08/20 10:05:38;;;;;;;11.93;5.10;;;;;;;27.48;45.44;101677.91;4912902;29;20033;-46
2022/08/20 10:08:06;;;;;;;10.90;4.90;;;;;;;27.60;45.99;101678.94;4912692;29;20636;-46
2022/08/20 10:10:31;;;;;;;10.43;5.38;;;;;;;27.95;44.95;101675.16;4912847;29;20036;-45
2022/08/20 10:12:57;;;;;;;11.75;5.20;;;;;;;27.99;44.38;101676.41;4911086;29;20548;-43
2022/08/20 10:15:22;;;;;;;10.53;4.67;;;;;;;28.17;45.17;101670.25;4903149;29;20028;-44
2022/08/20 10:17:47;;;;;;;10.73;3.88;;;;;;;28.47;43.11;101677.94;4898960;29;20036;-43
2022/08/20 10:20:13;;;;;;;11.43;3.87;;;;;;;28.62;44.72;101667.59;4897353;29;20044;-42
2022/08/20 10:22:39;;;;;;;10.68;4.40;;;;;;;29.02;42.69;101663.78;4899427;29;20808;-44
2022/08/20 10:25:06;;;;;;;13.77;4.35;;;;;;;29.01;43.69;101671.16;4899155;29;20035;-44
2022/08/20 10:27:31;;;;;;;11.05;4.55;;;;;;;29.19;42.51;101666.84;4898582;29;20081;-44
2022/08/20 10:29:56;;;;;;;9.93;4.45;;;;;;;29.30;43.29;101672.44;4899581;29;20590;-43
2022/08/20 10:32:22;;;;;;;10.27;4.20;;;;;;;29.56;41.45;101665.09;4912233;29;20028;-43
2022/08/20 10:34:47;;;;;;;14.00;4.47;;;;;;;29.48;42.73;101660.72;4908217;29;20044;-42
2022/08/20 10:37:15;;;;;;;10.50;4.60;;;;;;;29.63;39.38;101670.50;4898824;29;20025;-50
2022/08/20 10:39:40;;;;;;;10.65;4.20;;;;;;;29.53;41.74;101671.81;4898147;29;20065;-50
2022/08/20 10:42:05;;;;;;;11.30;3.97;;;;;;;29.56;39.97;101667.81;4897687;29;20477;-49
2022/08/20 10:44:31;;;;;;;11.85;3.42;;;;;;;29.79;38.95;101675.41;4896678;29;20028;-50
2022/08/20 10:46:56;;;;;;;8.90;3.20;;;;;;;30.00;38.73;101663.19;4895586;29;20048;-49
2022/08/20 10:49:21;;;;;;;10.67;3.30;;;;;;;30.13;37.85;101661.34;4891958;29;20408;-51
2022/08/20 10:51:46;;;;;;;13.77;3.88;;;;;;;30.10;37.75;101668.13;4894883;29;20513;-51
2022/08/20 10:54:12;;;;;;;13.07;3.95;;;;;;;30.16;37.84;101669.97;4892484;29;20103;-50
2022/08/20 10:56:37;;;;;;;6.63;3.03;;;;;;;29.75;38.71;101673.31;4889372;29;20033;-52
2022/08/20 10:59:02;;;;;;;8.65;3.00;;;;;;;29.57;38.22;101665.91;4897192;29;20399;-49
2022/08/20 11:01:28;;;;;;;8.40;3.00;;;;;;;29.16;39.73;101670.81;4897716;29;20024;-49
2022/08/20 11:03:53;;;;;;;6.87;2.70;;;;;;;29.32;40.73;101667.56;4893340;29;20037;-50
2022/08/20 11:06:18;;;;;;;7.57;2.75;;;;;;;29.41;39.62;101670.03;4894028;29;20723;-49
2022/08/20 11:08:44;;;;;;;7.23;3.13;;;;;;;29.63;37.91;101674.06;4893181;29;20029;-49
2022/08/20 11:11:09;;;;;;;12.63;3.07;;;;;;;29.87;39.23;101671.53;4898936;29;20276;-49
2022/08/20 11:13:35;;;;;;;15.48;2.97;;;;;;;29.63;38.01;101671.31;4898068;29;20293;-48
2022/08/20 11:16:02;;;;;;;9.25;2.53;;;;;;;29.33;38.46;101672.00;4896049;29;20040;-48
2022/08/20 11:18:28;;;;;;;6.50;2.33;;;;;;;29.10;38.55;101664.34;4897249;29;20453;-49
2022/08/20 11:20:54;;;;;;;8.48;2.45;;;;;;;29.10;38.79;101671.72;4895829;29;20507;-49